TimeCST,TemperatureF,Dew PointF,Humidity,Sea Level PressureIn,VisibilityMPH,Wind Direction,Wind SpeedMPH,Gust SpeedMPH,PrecipitationIn,Events,Conditions,WindDirDegrees,DateUTC
12:53 AM,30.9,16.0,54,30.32,10.0,North,6.9,-,N/A,,Clear,350,2013-02-20 06:53:00
1:53 AM,30.0,15.1,54,30.31,10.0,North,3.5,-,N/A,,Clear,360,2013-02-20 07:53:00
2:53 AM,28.9,12.9,51,30.33,10.0,NNW,5.8,-,N/A,,Clear,330,2013-02-20 08:53:00
3:53 AM,28.0,14.0,56,30.34,10.0,NNW,3.5,-,N/A,,Clear,330,2013-02-20 09:53:00
4:53 AM,28.0,14.0,56,30.33,10.0,NE,5.8,-,N/A,,Clear,40,2013-02-20 10:53:00
6:53 AM,28.0,10.0,47,30.35,10.0,NNE,6.9,-,N/A,,Clear,20,2013-02-20 12:53:00
7:53 AM,28.0,10.0,47,30.40,10.0,North,4.6,-,N/A,,Clear,350,2013-02-20 13:53:00
9:53 AM,28.9,10.0,45,30.40,10.0,NE,5.8,-,N/A,,Clear,50,2013-02-20 15:53:00
10:53 AM,28.9,12.0,49,30.39,-9999.0,North,-9999.0,-,N/A,,Clear,0,2013-02-20 16:53:00
11:53 AM,30.0,10.9,45,30.40,10.0,NE,8.1,-,N/A,,Clear,40,2013-02-20 17:53:00
12:53 PM,30.9,12.0,46,30.38,10.0,ENE,6.9,-,N/A,,Scattered Clouds,70,2013-02-20 18:53:00
1:53 PM,32.0,14.0,48,30.32,10.0,NE,9.2,-,N/A,,Scattered Clouds,50,2013-02-20 19:53:00
2:53 PM,32.0,14.0,48,30.29,10.0,ENE,9.2,-,N/A,,Mostly Cloudy,60,2013-02-20 20:53:00
3:53 PM,33.1,15.1,48,30.29,10.0,ENE,10.4,-,N/A,,Overcast,60,2013-02-20 21:53:00
4:53 PM,32.0,16.0,52,30.28,10.0,NE,10.4,-,N/A,,Overcast,50,2013-02-20 22:53:00
5:53 PM,32.0,18.0,56,30.30,10.0,ENE,5.8,-,N/A,,Mostly Cloudy,70,2013-02-20 23:53:00
6:53 PM,32.0,18.0,56,30.30,10.0,ENE,4.6,-,N/A,,Mostly Cloudy,60,2013-02-21 00:53:00
7:53 PM,32.0,19.9,61,30.29,10.0,ENE,6.9,-,N/A,,Overcast,60,2013-02-21 01:53:00
8:53 PM,32.0,19.0,59,30.28,10.0,NE,9.2,-,N/A,,Overcast,50,2013-02-21 02:53:00
9:53 PM,30.9,19.9,64,30.29,10.0,NE,6.9,-,N/A,,Overcast,40,2013-02-21 03:53:00
10:53 PM,30.9,19.0,61,30.29,10.0,NE,8.1,-,N/A,,Overcast,50,2013-02-21 04:53:00
11:53 PM,30.0,19.0,64,30.27,10.0,NE,12.7,-,N/A,,Overcast,50,2013-02-21 05:53:00